createdAt,value
2023-04-11T00:00:09.879Z,95.40
2023-04-11T00:05:12.859Z,95.50
2023-04-11T00:10:12.039Z,95.60
2023-04-11T00:15:11.310Z,95.70
2023-04-11T00:20:11.919Z,95.70
2023-04-11T00:25:11.627Z,95.70
2023-04-11T00:30:11.268Z,95.80
2023-04-11T00:35:10.743Z,95.90
2023-04-11T00:40:12.569Z,95.90
2023-04-11T00:45:12.073Z,95.80
2023-04-11T00:50:14.047Z,96.20
2023-04-11T00:55:13.733Z,96.20
2023-04-11T01:00:13.843Z,96.50
2023-04-11T01:05:13.459Z,96.70
2023-04-11T01:10:14.043Z,96.70
2023-04-11T01:15:12.965Z,96.70
2023-04-11T01:20:13.349Z,96.80
2023-04-11T01:25:16.037Z,97.20
2023-04-11T01:30:14.531Z,97.40
2023-04-11T01:35:13.526Z,97.40
2023-04-11T01:40:15.511Z,97.60
2023-04-11T01:45:14.149Z,97.90
2023-04-11T01:50:13.468Z,98.10
2023-04-11T01:55:13.404Z,98.30
2023-04-11T02:00:14.952Z,98.30
2023-04-11T02:05:14.148Z,98.50
2023-04-11T02:10:14.020Z,98.60
2023-04-11T02:15:12.967Z,98.70
2023-04-11T02:20:12.364Z,98.70
2023-04-11T02:25:11.450Z,98.90
2023-04-11T02:30:11.919Z,99.10
2023-04-11T02:35:11.038Z,99.10
2023-04-11T02:40:13.326Z,99.30
2023-04-11T02:45:13.560Z,99.40
2023-04-11T02:50:12.513Z,99.40
2023-04-11T02:55:17.055Z,99.30
2023-04-11T03:00:17.439Z,99.30
2023-04-11T03:05:20.672Z,99.40
2023-04-11T03:10:22.700Z,99.20
2023-04-11T03:15:22.864Z,99.20
2023-04-11T03:20:21.605Z,99.40
2023-04-11T03:25:23.952Z,99.30
2023-04-11T03:30:24.941Z,99.70
2023-04-11T03:35:23.725Z,99.80
2023-04-11T03:40:22.557Z,99.80
2023-04-11T03:45:29.994Z,99.90
2023-04-11T03:50:31.353Z,99.90
2023-04-11T03:55:33.716Z,99.50
2023-04-11T04:00:36.739Z,99.40
2023-04-11T04:05:41.591Z,99.20
2023-04-11T04:10:41.847Z,99.10
2023-04-11T04:15:42.759Z,99.30
2023-04-11T04:20:43.749Z,99.30
2023-04-11T04:25:42.567Z,99.20
2023-04-11T04:30:44.285Z,99.10
2023-04-11T04:35:44.389Z,99.20
2023-04-11T04:40:43.909Z,99.20
2023-04-11T04:45:44.019Z,99.20
2023-04-11T04:50:45.935Z,99.10
2023-04-11T04:55:45.163Z,99.10
2023-04-11T05:00:45.271Z,99.10
2023-04-11T05:05:52.201Z,99.10
2023-04-11T05:10:52.284Z,99.30
2023-04-11T05:15:52.345Z,99.30
2023-04-11T05:20:51.456Z,99.40
2023-04-11T05:25:53.973Z,99.40
2023-04-11T05:30:54.419Z,99.40
2023-04-11T05:35:53.031Z,99.50
2023-04-11T05:40:51.599Z,99.60
2023-04-11T05:45:51.465Z,99.70
2023-04-11T05:50:51.763Z,99.80
2023-04-11T05:55:49.949Z,99.90
2023-04-11T06:00:50.103Z,99.90
2023-04-11T06:05:48.605Z,99.90
2023-04-11T06:10:48.456Z,99.90
2023-04-11T06:15:47.033Z,99.90
2023-04-11T06:20:46.633Z,99.90
2023-04-11T06:25:45.149Z,99.90
2023-04-11T06:30:44.995Z,99.90
2023-04-11T06:35:43.574Z,99.90
2023-04-11T06:40:42.118Z,99.90
2023-04-11T06:45:40.666Z,99.90
2023-04-11T06:50:41.483Z,99.90
2023-04-11T06:55:39.949Z,99.90
2023-04-11T07:00:38.424Z,99.90
2023-04-11T07:05:39.461Z,99.90
2023-04-11T07:10:39.519Z,99.90
2023-04-11T07:15:38.036Z,99.90
2023-04-11T07:20:36.582Z,99.90
2023-04-11T07:25:35.085Z,99.90
2023-04-11T07:30:35.520Z,99.90
2023-04-11T07:35:35.010Z,99.90
2023-04-11T07:40:33.920Z,99.90
2023-04-11T07:45:33.708Z,99.90
2023-04-11T07:50:33.572Z,99.90
2023-04-11T07:55:32.605Z,99.90
2023-04-11T08:00:33.002Z,99.90
2023-04-11T08:05:33.809Z,99.90
2023-04-11T08:10:32.435Z,99.90
2023-04-11T08:15:31.790Z,99.90
2023-04-11T08:20:30.323Z,99.90
2023-04-11T08:32:19.779Z,99.90
2023-04-11T08:37:18.268Z,99.90
2023-04-11T08:42:24.492Z,99.90
2023-04-11T08:47:24.557Z,99.90
2023-04-11T08:52:23.687Z,99.90
2023-04-11T08:57:28.026Z,99.90
2023-04-11T09:02:28.651Z,99.90
2023-04-11T09:07:27.158Z,99.90
2023-04-11T09:12:31.077Z,99.90
2023-04-11T09:17:42.897Z,99.90
2023-04-11T09:22:43.098Z,99.90
2023-04-11T09:27:41.699Z,99.90
2023-04-11T09:32:41.980Z,99.90
2023-04-11T09:37:46.051Z,99.90
2023-04-11T09:42:45.165Z,99.90
2023-04-11T09:47:45.780Z,99.90
2023-04-11T09:52:45.266Z,99.90
2023-04-11T09:57:46.291Z,99.90
2023-04-11T10:02:49.362Z,99.90
2023-04-11T10:07:49.110Z,99.90
2023-04-11T10:12:47.966Z,99.90
2023-04-11T10:18:12.595Z,99.90
2023-04-11T10:23:11.354Z,99.90
2023-04-11T10:28:09.508Z,99.90
2023-04-11T10:33:13.002Z,99.90
2023-04-11T10:38:49.265Z,99.90
2023-04-11T10:43:48.044Z,99.90
2023-04-11T10:49:00.183Z,99.90
2023-04-11T10:54:00.702Z,99.90
2023-04-11T10:58:59.510Z,99.90
2023-04-11T11:10:48.112Z,99.90
2023-04-11T11:15:50.752Z,99.90
2023-04-11T11:20:49.267Z,99.90
2023-04-11T11:25:56.120Z,99.90
2023-04-11T11:30:55.961Z,99.90
2023-04-11T11:35:57.480Z,99.90
2023-04-11T11:40:58.182Z,99.90
2023-04-11T11:46:09.865Z,99.90
2023-04-11T11:51:08.727Z,99.90
2023-04-11T11:56:16.604Z,99.90
2023-04-11T12:01:18.873Z,99.90
2023-04-11T12:06:17.327Z,99.90
2023-04-11T12:11:18.596Z,99.90
2023-04-11T12:16:17.124Z,99.90
2023-04-11T12:21:15.614Z,99.90
2023-04-11T12:26:14.096Z,99.90
2023-04-11T12:31:13.703Z,99.90
2023-04-11T12:36:13.311Z,99.90
2023-04-11T12:41:31.069Z,99.90
2023-04-11T12:46:33.932Z,99.90
2023-04-11T12:51:32.456Z,99.90
2023-04-11T12:56:31.390Z,99.90
2023-04-11T13:01:31.767Z,99.90
2023-04-11T13:06:30.825Z,99.90
2023-04-11T13:11:28.994Z,99.90
2023-04-11T13:16:27.502Z,99.90
2023-04-11T13:21:28.092Z,99.90
2023-04-11T13:26:26.604Z,99.90
2023-04-11T13:31:27.046Z,99.90
2023-04-11T13:36:28.418Z,99.90
2023-04-11T13:41:27.230Z,99.90
2023-04-11T13:46:26.434Z,99.90
2023-04-11T13:51:26.341Z,99.90
2023-04-11T13:56:25.370Z,99.90
2023-04-11T14:01:24.105Z,99.90
2023-04-11T14:06:22.810Z,99.90
2023-04-11T14:11:22.743Z,99.90
2023-04-11T14:16:21.409Z,99.90
2023-04-11T14:21:19.589Z,99.90
2023-04-11T14:26:18.124Z,99.90
2023-04-11T14:31:18.079Z,99.90
2023-04-11T14:36:16.799Z,99.90
2023-04-11T14:41:15.258Z,99.90
2023-04-11T14:46:13.783Z,99.90
2023-04-11T14:51:13.685Z,99.90
2023-04-11T14:56:12.279Z,99.90
2023-04-11T15:01:10.765Z,99.90
2023-04-11T15:06:11.408Z,99.90
2023-04-11T15:11:11.280Z,99.90
2023-04-11T15:16:10.188Z,99.90
2023-04-11T15:21:09.126Z,99.90
2023-04-11T15:26:08.857Z,99.90
2023-04-11T15:31:10.382Z,99.90
2023-04-11T15:36:09.504Z,99.90
2023-04-11T15:41:08.694Z,99.90
2023-04-11T15:46:08.509Z,99.90
2023-04-11T15:51:11.081Z,99.90
2023-04-11T15:56:10.354Z,99.90
2023-04-11T16:06:42.795Z,99.90
2023-04-11T16:11:41.226Z,99.90
2023-04-11T16:16:40.952Z,99.90
2023-04-11T16:21:39.535Z,99.90
2023-04-11T16:26:37.687Z,99.90
2023-04-11T16:31:36.762Z,99.90
2023-04-11T16:36:36.396Z,99.90
2023-04-11T16:41:36.536Z,99.90
2023-04-11T16:46:34.662Z,99.90
2023-04-11T16:51:33.036Z,99.90
2023-04-11T16:56:33.462Z,99.90
2023-04-11T17:01:31.694Z,99.90
2023-04-11T17:06:29.975Z,99.90
2023-04-11T17:11:28.164Z,99.90
2023-04-11T17:16:27.971Z,99.90
2023-04-11T17:21:26.322Z,99.90
2023-04-11T17:33:23.913Z,99.90
2023-04-11T17:38:22.063Z,99.90
2023-04-11T17:43:20.193Z,99.90
2023-04-11T17:48:18.515Z,99.90
2023-04-11T17:53:18.207Z,99.90
2023-04-11T17:58:16.949Z,99.90
2023-04-11T18:03:17.271Z,99.90
2023-04-11T18:08:16.924Z,99.90
2023-04-11T18:13:15.074Z,99.90
2023-04-11T18:18:13.255Z,99.90
2023-04-11T18:23:11.707Z,99.90
2023-04-11T18:28:11.203Z,99.90
2023-04-11T18:33:09.682Z,99.90
2023-04-11T18:38:08.408Z,99.90
2023-04-11T18:43:06.728Z,99.90
2023-04-11T18:48:07.865Z,99.90
2023-04-11T18:53:08.951Z,99.90
2023-04-11T18:58:10.994Z,99.90
2023-04-11T19:03:16.614Z,99.90
2023-04-11T19:08:14.865Z,99.90
2023-04-11T19:13:13.871Z,99.90
2023-04-11T19:18:13.993Z,99.90
2023-04-11T19:23:12.508Z,99.90
2023-04-11T19:28:11.344Z,99.90
2023-04-11T19:33:09.527Z,99.90
2023-04-11T19:38:09.840Z,99.90
2023-04-11T19:43:08.418Z,99.90
2023-04-11T19:48:07.509Z,99.90
2023-04-11T19:53:05.917Z,99.90
2023-04-11T19:58:06.085Z,99.90
2023-04-11T20:03:06.128Z,99.90
2023-04-11T20:08:04.871Z,99.90
2023-04-11T20:13:03.033Z,99.90
2023-04-11T20:18:03.281Z,99.90
2023-04-11T20:23:05.778Z,99.90
2023-04-11T20:28:04.038Z,99.90
2023-04-11T20:33:04.253Z,99.90
2023-04-11T20:38:02.572Z,99.90
2023-04-11T20:43:02.363Z,99.90
2023-04-11T20:48:02.051Z,99.90
2023-04-11T20:53:03.255Z,99.90
2023-04-11T20:58:01.401Z,99.90
2023-04-11T21:03:00.441Z,99.90
2023-04-11T21:07:59.164Z,99.90
2023-04-11T21:12:59.067Z,99.90
2023-04-11T21:17:57.344Z,99.90
2023-04-11T21:22:56.225Z,99.90
2023-04-11T21:27:54.851Z,99.90
2023-04-11T21:32:54.346Z,99.90
2023-04-11T21:37:53.229Z,99.90
2023-04-11T21:42:51.800Z,99.90
2023-04-11T21:47:51.337Z,99.90
2023-04-11T21:52:51.227Z,99.90
2023-04-11T21:57:49.725Z,99.90
2023-04-11T22:02:48.037Z,99.90
2023-04-11T22:07:49.965Z,99.90
2023-04-11T22:12:49.899Z,99.90
2023-04-11T22:17:51.285Z,99.90
2023-04-11T22:22:50.212Z,99.90
2023-04-11T22:27:50.187Z,99.90
2023-04-11T22:32:48.890Z,99.90
2023-04-11T22:37:47.746Z,99.90
2023-04-11T22:42:47.327Z,99.90
2023-04-11T22:47:47.283Z,99.90
2023-04-11T22:52:46.482Z,99.90
2023-04-11T22:57:44.991Z,99.90
2023-04-11T23:02:43.871Z,99.90
2023-04-11T23:07:44.238Z,99.90
2023-04-11T23:12:42.988Z,99.90
2023-04-11T23:17:41.309Z,99.90
2023-04-11T23:22:42.292Z,99.90
2023-04-11T23:27:42.967Z,99.90
2023-04-11T23:32:41.458Z,99.90
2023-04-11T23:37:41.247Z,99.90
2023-04-11T23:42:41.839Z,99.90
2023-04-11T23:47:40.361Z,99.90
2023-04-11T23:52:40.072Z,99.90
2023-04-11T23:57:38.573Z,99.90
